createdAt,value
2023-11-30T00:18:47.682Z,2.17
2023-11-30T00:38:47.535Z,2.16
2023-11-30T00:58:47.636Z,2.12
2023-11-30T01:18:47.527Z,2.20
2023-11-30T01:38:47.534Z,2.31
2023-11-30T01:58:47.520Z,2.50
2023-11-30T02:18:47.514Z,2.52
2023-11-30T02:38:47.496Z,2.13
2023-11-30T02:58:47.509Z,2.13
2023-11-30T03:18:47.502Z,2.31
2023-11-30T03:38:47.551Z,2.19
2023-11-30T03:58:47.575Z,2.43
2023-11-30T04:18:47.532Z,2.50
2023-11-30T04:38:47.562Z,2.34
2023-11-30T04:58:47.511Z,2.34
2023-11-30T05:18:47.526Z,2.41
2023-11-30T05:38:47.500Z,2.21
2023-11-30T05:58:47.437Z,2.28
2023-11-30T06:18:47.431Z,2.32
2023-11-30T06:38:47.413Z,2.41
2023-11-30T06:58:47.396Z,2.26
2023-11-30T07:18:47.495Z,2.14
2023-11-30T07:38:47.407Z,2.03
2023-11-30T07:58:47.388Z,2.16
2023-11-30T08:18:47.471Z,2.20
2023-11-30T08:38:47.397Z,2.19
2023-11-30T08:58:47.445Z,2.36
2023-11-30T09:18:47.412Z,2.49
2023-11-30T09:38:47.568Z,2.43
2023-11-30T09:58:47.412Z,2.33
2023-11-30T10:18:47.376Z,2.28
2023-11-30T10:38:47.549Z,2.21
2023-11-30T10:58:47.579Z,2.21
2023-11-30T11:18:47.491Z,2.34
2023-11-30T11:38:47.432Z,2.35
2023-11-30T11:58:47.586Z,2.48
2023-11-30T12:18:47.473Z,2.47
2023-11-30T12:38:47.616Z,2.52
2023-11-30T12:58:47.604Z,2.48
2023-11-30T13:18:47.607Z,2.67
2023-11-30T13:38:47.577Z,2.80
2023-11-30T13:58:47.627Z,2.95
2023-11-30T14:18:47.585Z,2.94
2023-11-30T14:38:47.603Z,3.02
2023-11-30T14:58:47.486Z,2.92
2023-11-30T15:18:47.435Z,2.94
2023-11-30T15:38:47.554Z,2.92
2023-11-30T15:58:47.498Z,2.85
2023-11-30T16:18:47.589Z,2.80
2023-11-30T16:38:47.424Z,2.87
2023-11-30T16:58:47.468Z,2.68
2023-11-30T17:18:47.211Z,2.76
2023-11-30T17:38:47.502Z,2.61
2023-11-30T17:58:47.256Z,2.53
2023-11-30T18:18:47.167Z,2.74
2023-11-30T18:38:47.344Z,2.83
2023-11-30T18:58:47.445Z,2.80
2023-11-30T19:18:47.221Z,2.93
2023-11-30T19:38:47.421Z,2.80
2023-11-30T19:58:47.401Z,2.79
2023-11-30T20:18:47.296Z,2.75
2023-11-30T20:38:47.152Z,2.75
2023-11-30T20:58:47.339Z,2.80
2023-11-30T21:18:47.101Z,2.92
2023-11-30T21:38:47.269Z,3.08
2023-11-30T21:58:47.208Z,3.26
2023-11-30T22:18:47.258Z,3.17
2023-11-30T22:38:47.372Z,3.07
2023-11-30T22:58:47.237Z,3.22
2023-11-30T23:18:47.388Z,3.23
2023-11-30T23:38:47.048Z,3.43
2023-11-30T23:58:47.270Z,3.16
